Time;durP1;ratioP1;P1;durP2;ratioP2;P2;SDS_P1;SDS_P2;PMS_P1;PMS_P2;Temp;Humidity;BMP_temperature;BMP_pressure;BME280_temperature;BME280_humidity;BME280_pressure;Samples;Min_cycle;Max_cycle;Signal;HPM_P1;HPM_P2
2024/02/04 00:02:07;;;;;;;17.42;8.43;;;7.70;99.90;;;;;;5078294;28;20023;-52
2024/02/04 00:04:34;;;;;;;19.15;7.63;;;7.70;99.90;;;;;;5075316;28;20112;-55
2024/02/04 00:06:59;;;;;;;14.48;7.63;;;7.70;99.90;;;;;;5071988;28;20024;-54
2024/02/04 00:09:28;;;;;;;17.05;7.85;;;7.70;99.90;;;;;;5071652;28;20028;-50
2024/02/04 00:11:54;;;;;;;26.25;9.13;;;7.70;99.90;;;;;;5075128;28;20410;-50
2024/02/04 00:14:19;;;;;;;11.88;7.32;;;7.60;99.90;;;;;;5071545;28;20049;-50
2024/02/04 00:16:45;;;;;;;22.33;7.18;;;7.60;99.90;;;;;;5070257;28;20123;-52
2024/02/04 00:19:10;;;;;;;15.75;6.93;;;7.60;99.90;;;;;;5071838;28;20033;-54
2024/02/04 00:21:36;;;;;;;16.42;6.90;;;7.60;99.90;;;;;;5072035;28;20147;-53
2024/02/04 00:24:02;;;;;;;16.75;6.95;;;7.60;99.90;;;;;;5071278;28;20068;-54
2024/02/04 00:26:27;;;;;;;12.32;6.55;;;7.50;99.90;;;;;;5071668;28;20070;-54
2024/02/04 00:28:53;;;;;;;14.50;5.53;;;7.50;99.90;;;;;;5070273;28;20024;-53
2024/02/04 00:31:19;;;;;;;14.57;5.60;;;7.50;99.90;;;;;;5074817;28;20060;-53
2024/02/04 00:33:44;;;;;;;16.23;6.18;;;7.50;99.90;;;;;;5071012;28;20055;-52
2024/02/04 00:36:10;;;;;;;17.02;5.28;;;7.50;99.90;;;;;;5071451;28;20029;-52
2024/02/04 00:38:35;;;;;;;13.77;6.10;;;7.50;99.90;;;;;;5074279;28;20036;-52
2024/02/04 00:41:01;;;;;;;14.98;5.18;;;7.50;99.90;;;;;;5069793;28;20025;-53
2024/02/04 00:43:26;;;;;;;16.85;5.15;;;7.50;99.90;;;;;;5070735;28;20040;-53
2024/02/04 00:45:54;;;;;;;13.43;5.47;;;7.50;99.90;;;;;;5074359;28;20430;-54
2024/02/04 00:48:19;;;;;;;12.45;4.72;;;7.40;99.90;;;;;;5077480;28;20021;-52
2024/02/04 00:50:45;;;;;;;12.15;4.90;;;7.40;99.90;;;;;;5072715;28;20066;-54
2024/02/04 00:53:10;;;;;;;14.43;6.10;;;7.40;99.90;;;;;;5070857;28;20029;-51
2024/02/04 00:55:36;;;;;;;14.45;4.90;;;7.40;99.90;;;;;;5069611;28;20476;-53
2024/02/04 00:58:02;;;;;;;14.02;5.72;;;7.40;99.90;;;;;;5070788;28;20114;-51
2024/02/04 01:00:27;;;;;;;11.80;5.75;;;7.40;99.90;;;;;;5070827;28;20013;-53
2024/02/04 01:02:53;;;;;;;20.27;6.40;;;7.40;99.90;;;;;;5073625;28;20069;-52
2024/02/04 01:05:19;;;;;;;12.57;6.75;;;7.40;99.90;;;;;;5070914;28;20033;-51
2024/02/04 01:07:45;;;;;;;13.05;6.57;;;7.40;99.90;;;;;;5070726;28;20016;-52
2024/02/04 01:10:10;;;;;;;16.83;6.60;;;7.50;99.90;;;;;;5073524;28;20025;-50
2024/02/04 01:12:36;;;;;;;12.60;5.93;;;7.50;99.90;;;;;;5070205;28;20017;-49
2024/02/04 01:15:05;;;;;;;21.13;7.32;;;7.50;99.90;;;;;;5071287;28;20028;-54
2024/02/04 01:17:30;;;;;;;16.13;6.78;;;7.50;99.90;;;;;;5073179;28;20107;-53
2024/02/04 01:19:56;;;;;;;12.43;6.47;;;7.50;99.90;;;;;;5075003;28;20302;-51
2024/02/04 01:22:26;;;;;;;16.98;7.07;;;7.50;99.90;;;;;;5072957;28;20028;-51
2024/02/04 01:24:52;;;;;;;15.95;6.53;;;7.50;99.90;;;;;;5066806;28;20131;-54
2024/02/04 01:27:17;;;;;;;15.48;7.28;;;7.40;99.90;;;;;;5071633;28;20726;-54
2024/02/04 01:29:43;;;;;;;21.02;7.72;;;7.40;99.90;;;;;;5073120;28;20108;-53
2024/02/04 01:32:08;;;;;;;15.30;7.20;;;7.40;99.90;;;;;;5070123;28;20351;-54
2024/02/04 01:34:34;;;;;;;15.77;7.47;;;7.40;99.90;;;;;;5070313;28;20103;-53
2024/02/04 01:36:59;;;;;;;16.17;7.72;;;7.40;99.90;;;;;;5070128;28;20354;-54
2024/02/04 01:39:25;;;;;;;15.90;7.55;;;7.40;99.90;;;;;;5069950;28;20094;-54
2024/02/04 01:41:50;;;;;;;20.00;8.05;;;7.40;99.90;;;;;;5069336;28;20078;-53
2024/02/04 01:44:18;;;;;;;12.25;7.40;;;7.40;99.90;;;;;;5069410;28;20024;-54
2024/02/04 01:46:44;;;;;;;18.30;7.57;;;7.40;99.90;;;;;;5069314;28;20179;-53
2024/02/04 01:49:10;;;;;;;16.55;8.15;;;7.40;99.90;;;;;;5069487;28;20059;-53
2024/02/04 01:51:36;;;;;;;13.30;7.35;;;7.40;99.90;;;;;;5071634;28;20401;-53
2024/02/04 01:54:03;;;;;;;16.17;7.47;;;7.30;99.90;;;;;;5069972;28;20099;-54
2024/02/04 01:56:30;;;;;;;14.45;7.28;;;7.40;99.90;;;;;;5070991;28;20463;-55
2024/02/04 01:58:56;;;;;;;20.55;7.30;;;7.40;99.90;;;;;;5069046;28;20093;-53
2024/02/04 02:01:23;;;;;;;14.93;7.88;;;7.30;99.90;;;;;;5071938;28;20028;-54
2024/02/04 02:03:50;;;;;;;11.98;7.10;;;7.30;99.90;;;;;;5068929;28;20048;-54
2024/02/04 02:06:16;;;;;;;19.02;7.20;;;7.30;99.90;;;;;;5069780;28;20020;-55
2024/02/04 02:08:42;;;;;;;19.73;8.68;;;7.30;99.90;;;;;;5069792;28;20028;-52
2024/02/04 02:11:20;;;;;;;13.05;7.53;;;7.30;99.90;;;;;;5063684;28;20024;-53
2024/02/04 02:13:52;;;;;;;18.60;8.48;;;7.30;99.90;;;;;;5069206;28;20161;-54
2024/02/04 02:16:21;;;;;;;15.80;7.78;;;7.40;99.90;;;;;;5069619;28;20028;-52
2024/02/04 02:18:54;;;;;;;19.40;8.40;;;7.30;99.90;;;;;;5069486;28;20025;-51
2024/02/04 02:21:23;;;;;;;16.95;8.63;;;7.40;99.90;;;;;;5069605;28;20111;-52
2024/02/04 02:24:03;;;;;;;20.90;8.98;;;7.40;99.90;;;;;;5069173;28;20024;-53
2024/02/04 02:26:33;;;;;;;17.55;8.73;;;7.40;99.90;;;;;;5069138;28;20478;-51
2024/02/04 02:28:59;;;;;;;19.67;8.23;;;7.40;99.90;;;;;;5069648;28;20029;-53
2024/02/04 02:31:25;;;;;;;14.13;8.90;;;7.40;99.90;;;;;;5069652;28;20024;-54
2024/02/04 02:33:50;;;;;;;20.95;9.60;;;7.30;99.90;;;;;;5068919;28;20670;-54
2024/02/04 02:36:21;;;;;;;18.10;8.43;;;7.40;99.90;;;;;;5068112;28;20067;-53
2024/02/04 02:38:58;;;;;;;24.08;8.75;;;7.30;99.90;;;;;;5071285;28;20656;-54
2024/02/04 02:41:25;;;;;;;20.95;8.73;;;7.30;99.90;;;;;;5069473;28;20029;-51
2024/02/04 02:43:53;;;;;;;18.17;8.85;;;7.30;99.90;;;;;;5067266;28;20413;-53
2024/02/04 02:46:19;;;;;;;19.63;8.20;;;7.30;99.90;;;;;;5069123;28;20031;-54
2024/02/04 02:48:45;;;;;;;25.15;9.90;;;7.30;99.90;;;;;;5069517;28;20024;-52
2024/02/04 02:51:10;;;;;;;18.85;7.53;;;7.30;99.90;;;;;;5071263;28;20534;-51
2024/02/04 02:53:36;;;;;;;18.73;8.07;;;7.30;99.90;;;;;;5069798;28;20120;-54
2024/02/04 02:56:02;;;;;;;14.95;8.30;;;7.20;99.90;;;;;;5069915;28;20043;-54
2024/02/04 02:58:27;;;;;;;16.63;7.60;;;7.20;99.90;;;;;;5069355;28;20598;-54
2024/02/04 03:00:53;;;;;;;15.55;8.27;;;7.20;99.90;;;;;;5070634;28;20034;-55
2024/02/04 03:03:19;;;;;;;15.27;7.35;;;7.20;99.90;;;;;;5068833;28;20031;-53
2024/02/04 03:05:44;;;;;;;17.58;7.97;;;7.20;99.90;;;;;;5068975;28;20032;-53
2024/02/04 03:08:10;;;;;;;14.52;7.50;;;7.10;99.90;;;;;;5069127;28;20020;-55
2024/02/04 03:10:35;;;;;;;14.73;8.75;;;7.10;99.90;;;;;;5069498;28;20017;-52
2024/02/04 03:13:02;;;;;;;15.60;7.95;;;7.10;99.90;;;;;;5071240;28;20021;-55
2024/02/04 03:15:27;;;;;;;14.63;8.32;;;7.10;99.90;;;;;;5068618;28;20060;-53
2024/02/04 03:17:53;;;;;;;17.30;8.05;;;7.10;99.90;;;;;;5067352;28;20063;-54
2024/02/04 03:20:18;;;;;;;12.20;7.45;;;7.00;99.90;;;;;;5070541;28;20453;-55
2024/02/04 03:22:46;;;;;;;25.55;9.65;;;7.00;99.90;;;;;;5071595;28;20028;-52
2024/02/04 03:25:11;;;;;;;20.17;9.00;;;7.00;99.90;;;;;;5069047;28;20029;-53
2024/02/04 03:27:39;;;;;;;18.83;8.02;;;7.00;99.90;;;;;;5068960;28;20025;-54
2024/02/04 03:30:05;;;;;;;18.15;9.30;;;6.90;99.90;;;;;;5071870;28;20023;-54
2024/02/04 03:32:33;;;;;;;18.40;9.98;;;7.00;99.90;;;;;;5068623;28;20027;-54
2024/02/04 03:35:00;;;;;;;21.73;10.30;;;6.90;99.90;;;;;;5067745;28;20381;-53
2024/02/04 03:37:26;;;;;;;18.45;9.07;;;7.00;99.90;;;;;;5071765;28;20032;-53
2024/02/04 03:39:51;;;;;;;24.55;11.10;;;7.00;99.90;;;;;;5070948;28;20401;-53
2024/02/04 03:42:18;;;;;;;22.88;11.15;;;7.00;99.90;;;;;;5072258;28;20056;-55
2024/02/04 03:44:44;;;;;;;20.85;10.38;;;7.10;99.90;;;;;;5070814;28;20031;-52
2024/02/04 03:47:09;;;;;;;21.83;10.23;;;7.10;99.90;;;;;;5072459;28;20024;-52
2024/02/04 03:49:35;;;;;;;30.02;11.15;;;7.10;99.90;;;;;;5074752;28;20029;-51
2024/02/04 03:52:00;;;;;;;20.75;11.02;;;7.10;99.90;;;;;;5073522;28;20413;-54
2024/02/04 03:54:26;;;;;;;22.50;11.05;;;7.10;99.90;;;;;;5072310;28;20024;-53
2024/02/04 03:56:51;;;;;;;21.00;11.50;;;7.10;99.90;;;;;;5072410;28;20044;-54
2024/02/04 03:59:17;;;;;;;20.17;10.55;;;7.10;99.90;;;;;;5072052;28;20105;-55
2024/02/04 04:01:48;;;;;;;25.85;10.10;;;7.10;99.90;;;;;;5071222;28;20108;-55
2024/02/04 04:04:14;;;;;;;24.42;9.98;;;7.20;99.90;;;;;;5071910;28;20507;-54
2024/02/04 04:06:39;;;;;;;29.67;10.98;;;7.20;99.90;;;;;;5071856;28;20016;-54
2024/02/04 04:09:05;;;;;;;20.17;10.48;;;7.20;99.90;;;;;;5071607;28;20021;-54
2024/02/04 04:11:31;;;;;;;20.92;9.65;;;7.20;99.90;;;;;;5071829;28;20077;-54
2024/02/04 04:13:56;;;;;;;20.50;10.60;;;7.20;99.90;;;;;;5071567;28;20055;-51
2024/02/04 04:16:22;;;;;;;20.83;10.82;;;7.30;99.90;;;;;;5071731;28;20044;-54
2024/02/04 04:18:48;;;;;;;18.80;8.90;;;7.30;99.90;;;;;;5072471;28;20358;-54
2024/02/04 04:21:13;;;;;;;20.90;10.13;;;7.30;99.90;;;;;;5071904;28;20016;-53
2024/02/04 04:23:39;;;;;;;17.33;10.63;;;7.40;99.90;;;;;;5069732;28;20588;-51
2024/02/04 04:26:05;;;;;;;21.85;9.27;;;7.40;99.90;;;;;;5071593;28;20096;-54
2024/02/04 04:28:31;;;;;;;27.27;11.18;;;7.40;99.90;;;;;;5071531;28;20025;-53
2024/02/04 04:30:56;;;;;;;21.20;10.88;;;7.40;99.90;;;;;;5072074;28;20423;-53
2024/02/04 04:33:22;;;;;;;24.85;10.88;;;7.40;99.90;;;;;;5070849;28;20411;-52
2024/02/04 04:35:48;;;;;;;26.95;11.38;;;7.40;99.90;;;;;;5071478;28;20028;-55
2024/02/04 04:38:13;;;;;;;22.02;10.45;;;7.30;99.90;;;;;;5071504;28;20052;-53
2024/02/04 04:40:40;;;;;;;22.35;10.13;;;7.30;99.90;;;;;;5071413;28;20346;-54
2024/02/04 04:43:06;;;;;;;22.95;9.70;;;7.30;99.90;;;;;;5071213;28;20044;-55
2024/02/04 04:45:32;;;;;;;18.73;11.20;;;7.30;99.90;;;;;;5071526;28;20433;-54
2024/02/04 04:47:57;;;;;;;26.10;10.73;;;7.30;99.90;;;;;;5071205;28;20073;-53
2024/02/04 04:50:23;;;;;;;19.58;10.40;;;7.30;99.90;;;;;;5071307;28;20025;-54
2024/02/04 04:52:48;;;;;;;23.10;10.77;;;7.30;99.90;;;;;;5070697;28;20067;-53
2024/02/04 04:55:14;;;;;;;31.00;11.32;;;7.30;99.90;;;;;;5071696;28;20035;-52
2024/02/04 04:57:40;;;;;;;19.42;9.45;;;7.30;99.90;;;;;;5071523;28;20024;-52
2024/02/04 05:00:09;;;;;;;25.58;10.23;;;7.30;99.90;;;;;;5069658;28;20417;-54
2024/02/04 05:02:39;;;;;;;20.55;9.40;;;7.30;99.90;;;;;;5070888;28;20155;-54
2024/02/04 05:05:06;;;;;;;21.17;9.18;;;7.30;99.90;;;;;;5070874;28;20111;-53
2024/02/04 05:07:31;;;;;;;20.98;9.40;;;7.30;99.90;;;;;;5070333;28;20052;-54
2024/02/04 05:09:57;;;;;;;20.33;8.10;;;7.30;99.90;;;;;;5062587;28;20628;-50
2024/02/04 05:12:23;;;;;;;17.67;7.93;;;7.30;99.90;;;;;;5070186;28;20455;-55
2024/02/04 05:14:48;;;;;;;16.73;6.75;;;7.30;99.90;;;;;;5070524;28;20028;-53
2024/02/04 05:17:14;;;;;;;19.40;6.75;;;7.40;99.90;;;;;;5070963;28;20640;-55
2024/02/04 05:19:42;;;;;;;15.90;6.68;;;7.30;99.90;;;;;;5070901;28;20099;-55
2024/02/04 05:22:08;;;;;;;18.10;6.75;;;7.40;99.90;;;;;;5070251;28;20024;-53
2024/02/04 05:24:34;;;;;;;20.80;5.80;;;7.30;99.90;;;;;;5070607;28;20035;-52
2024/02/04 05:26:59;;;;;;;17.58;6.10;;;7.30;99.90;;;;;;5070513;28;20035;-54
2024/02/04 05:29:25;;;;;;;18.13;5.38;;;7.30;99.90;;;;;;5070300;28;20024;-52
2024/02/04 05:31:50;;;;;;;10.77;5.07;;;7.30;99.90;;;;;;5070183;28;20017;-54
2024/02/04 05:34:16;;;;;;;14.60;5.43;;;7.40;99.90;;;;;;5070049;28;20056;-51
2024/02/04 05:36:42;;;;;;;12.50;4.38;;;7.30;99.90;;;;;;5070294;28;20023;-52
2024/02/04 05:39:15;;;;;;;9.73;4.50;;;7.30;99.90;;;;;;5070010;28;20572;-52
2024/02/04 05:41:41;;;;;;;8.00;4.15;;;7.30;99.90;;;;;;5070498;28;20027;-50
2024/02/04 05:44:08;;;;;;;13.95;4.28;;;7.30;99.90;;;;;;5068220;28;20074;-51
2024/02/04 05:46:37;;;;;;;10.05;3.75;;;7.30;99.90;;;;;;5070147;28;20493;-51
2024/02/04 05:49:04;;;;;;;20.00;4.53;;;7.30;99.90;;;;;;5070058;28;20055;-52
2024/02/04 05:51:33;;;;;;;10.80;3.53;;;7.30;99.90;;;;;;5070192;28;20017;-55
2024/02/04 05:53:58;;;;;;;10.10;3.72;;;7.30;99.90;;;;;;5071731;28;20021;-55
2024/02/04 05:56:24;;;;;;;11.93;3.72;;;7.40;99.90;;;;;;5076021;28;20104;-56
2024/02/04 05:58:49;;;;;;;9.65;3.85;;;7.30;99.90;;;;;;5069577;28;20516;-55
2024/02/04 06:01:16;;;;;;;17.50;4.03;;;7.30;99.90;;;;;;5069402;28;20032;-53
2024/02/04 06:03:46;;;;;;;16.25;4.25;;;7.30;99.90;;;;;;5069656;28;20012;-53
2024/02/04 06:06:15;;;;;;;13.90;4.68;;;7.30;99.90;;;;;;5073878;28;20653;-54
2024/02/04 06:08:41;;;;;;;12.53;3.50;;;7.30;99.90;;;;;;5081428;28;20019;-54
2024/02/04 06:11:10;;;;;;;13.00;4.45;;;7.30;99.90;;;;;;5069769;28;20024;-51
2024/02/04 06:13:36;;;;;;;8.68;3.65;;;7.30;99.90;;;;;;5069467;28;20015;-54
2024/02/04 06:16:01;;;;;;;9.38;3.83;;;7.30;99.90;;;;;;5080111;28;20017;-51
2024/02/04 06:18:27;;;;;;;10.40;4.43;;;7.20;99.90;;;;;;5075189;28;20370;-54
2024/02/04 06:20:53;;;;;;;14.20;5.05;;;7.30;99.90;;;;;;5069467;28;20016;-52
2024/02/04 06:23:19;;;;;;;11.43;4.32;;;7.30;99.90;;;;;;5069319;28;20028;-53
2024/02/04 06:25:45;;;;;;;17.92;4.68;;;7.20;99.90;;;;;;5069711;28;20446;-55
2024/02/04 06:28:10;;;;;;;10.75;4.72;;;7.20;99.90;;;;;;5076121;28;20104;-55
2024/02/04 06:30:36;;;;;;;15.77;5.40;;;7.20;99.90;;;;;;5069637;28;20024;-55
2024/02/04 06:33:02;;;;;;;11.10;5.35;;;7.20;99.90;;;;;;5071618;28;20029;-54
2024/02/04 06:35:28;;;;;;;12.27;5.30;;;7.20;99.90;;;;;;5074483;28;20512;-55
2024/02/04 06:37:53;;;;;;;11.52;4.60;;;7.30;99.90;;;;;;5069329;28;20029;-55
2024/02/04 06:40:19;;;;;;;14.82;5.90;;;7.20;99.90;;;;;;5069203;28;20112;-55
2024/02/04 06:42:44;;;;;;;13.25;5.82;;;7.30;99.90;;;;;;5069450;28;20024;-55
2024/02/04 06:45:10;;;;;;;12.27;5.22;;;7.30;99.90;;;;;;5076063;28;20055;-55
2024/02/04 06:47:35;;;;;;;11.98;5.20;;;7.30;99.90;;;;;;5069462;28;20020;-53
2024/02/04 06:50:04;;;;;;;15.50;5.20;;;7.40;99.90;;;;;;5069069;28;20113;-45
2024/02/04 06:52:30;;;;;;;16.60;5.47;;;7.40;99.90;;;;;;5067731;28;20024;-44
2024/02/04 06:54:58;;;;;;;13.95;5.63;;;7.30;99.90;;;;;;5069315;28;20033;-44
2024/02/04 06:57:24;;;;;;;12.98;5.75;;;7.40;99.90;;;;;;5068853;28;20481;-43
2024/02/04 06:59:55;;;;;;;18.48;6.10;;;7.40;99.90;;;;;;5076634;28;20028;-44
2024/02/04 07:02:21;;;;;;;19.13;6.75;;;7.40;99.90;;;;;;5069006;28;20070;-43
2024/02/04 07:04:46;;;;;;;16.08;6.25;;;7.30;99.90;;;;;;5076297;28;20032;-44
2024/02/04 07:07:12;;;;;;;24.02;8.38;;;7.40;99.90;;;;;;5067639;28;20017;-43
2024/02/04 07:09:37;;;;;;;10.63;5.97;;;7.40;99.90;;;;;;5067682;28;20048;-46
2024/02/04 07:12:03;;;;;;;20.40;7.00;;;7.40;99.90;;;;;;5062863;28;20098;-43
2024/02/04 07:14:28;;;;;;;16.25;7.55;;;7.40;99.90;;;;;;5072900;28;20131;-45
2024/02/04 07:16:54;;;;;;;13.90;6.90;;;7.40;99.90;;;;;;5072484;28;20033;-43
2024/02/04 07:19:19;;;;;;;20.63;7.22;;;7.50;99.90;;;;;;5072601;28;20035;-42
2024/02/04 07:21:45;;;;;;;23.23;6.68;;;7.50;99.90;;;;;;5071369;28;20024;-45
2024/02/04 07:24:10;;;;;;;18.95;7.30;;;7.40;99.90;;;;;;5082831;28;20020;-44
2024/02/04 07:26:36;;;;;;;17.27;7.15;;;7.50;99.90;;;;;;5076885;28;20096;-43
2024/02/04 07:29:01;;;;;;;14.20;8.02;;;7.50;99.90;;;;;;5079721;28;20012;-44
2024/02/04 07:31:27;;;;;;;20.17;8.23;;;7.50;99.90;;;;;;5072912;28;20504;-45
2024/02/04 07:33:52;;;;;;;16.10;8.40;;;7.60;99.90;;;;;;5072480;28;20028;-44
2024/02/04 07:36:18;;;;;;;19.02;8.23;;;7.60;99.90;;;;;;5079439;28;20077;-45
2024/02/04 07:38:44;;;;;;;17.73;8.80;;;7.60;99.90;;;;;;5072471;28;20540;-44
2024/02/04 07:41:09;;;;;;;14.10;7.75;;;7.60;99.90;;;;;;5072307;28;20028;-43
2024/02/04 07:43:35;;;;;;;20.88;8.38;;;7.60;99.90;;;;;;5072047;28;20052;-43
2024/02/04 07:46:02;;;;;;;19.95;8.50;;;7.60;99.90;;;;;;5072402;28;20104;-43
2024/02/04 07:48:27;;;;;;;18.15;7.88;;;7.60;99.90;;;;;;5072234;28;20119;-45
2024/02/04 07:50:53;;;;;;;20.52;8.10;;;7.60;99.90;;;;;;5071950;28;20468;-44
2024/02/04 07:53:19;;;;;;;16.33;7.30;;;7.60;99.90;;;;;;5075348;28;20016;-44
2024/02/04 07:55:44;;;;;;;19.27;6.80;;;7.70;99.90;;;;;;5082448;28;20463;-45
2024/02/04 07:58:10;;;;;;;15.48;6.93;;;7.70;99.90;;;;;;5079089;28;20359;-44
2024/02/04 08:00:35;;;;;;;18.95;6.40;;;7.80;99.90;;;;;;5072056;28;20016;-44
2024/02/04 08:03:00;;;;;;;12.88;6.30;;;7.70;99.90;;;;;;5070145;28;20028;-47
2024/02/04 08:05:26;;;;;;;15.55;6.90;;;7.80;99.90;;;;;;5070671;28;20482;-44
2024/02/04 08:07:52;;;;;;;18.73;6.60;;;7.80;99.90;;;;;;5077193;28;20013;-47
2024/02/04 08:10:17;;;;;;;11.88;5.53;;;7.90;99.90;;;;;;5078466;28;20154;-44
2024/02/04 08:12:43;;;;;;;14.23;5.38;;;7.90;99.90;;;;;;5069793;28;20020;-45
2024/02/04 08:15:09;;;;;;;13.77;4.85;;;7.90;99.90;;;;;;5070906;28;20054;-46
2024/02/04 08:17:35;;;;;;;14.65;5.00;;;7.90;99.90;;;;;;5079134;28;20039;-43
2024/02/04 08:20:00;;;;;;;18.08;5.00;;;7.90;99.90;;;;;;5074802;28;20032;-42
2024/02/04 08:22:26;;;;;;;11.45;5.38;;;8.00;99.90;;;;;;5081318;28;20059;-44
2024/02/04 08:24:51;;;;;;;9.38;4.38;;;8.00;99.90;;;;;;5078920;28;20343;-46
2024/02/04 08:27:17;;;;;;;12.18;4.18;;;8.00;99.90;;;;;;5079952;28;20342;-43
2024/02/04 08:29:43;;;;;;;6.65;3.40;;;8.10;99.90;;;;;;5079452;28;20088;-52
2024/02/04 08:32:09;;;;;;;13.35;3.65;;;8.10;99.90;;;;;;5082633;28;20489;-53
2024/02/04 08:34:34;;;;;;;8.60;3.20;;;8.20;99.90;;;;;;5081088;28;20024;-53
2024/02/04 08:37:00;;;;;;;12.02;3.75;;;8.20;99.90;;;;;;5079314;28;20028;-53
2024/02/04 08:39:26;;;;;;;12.73;3.45;;;8.30;99.90;;;;;;5080904;28;20041;-54
2024/02/04 08:41:52;;;;;;;7.45;2.58;;;8.30;99.90;;;;;;5078916;28;20552;-53
2024/02/04 08:44:17;;;;;;;8.23;3.03;;;8.40;99.90;;;;;;5080065;28;20020;-52
2024/02/04 08:46:43;;;;;;;8.77;3.17;;;8.50;99.90;;;;;;5081708;28;20024;-53
2024/02/04 08:49:08;;;;;;;9.30;3.28;;;8.50;99.90;;;;;;5080506;28;20444;-53
2024/02/04 08:51:34;;;;;;;10.18;3.30;;;8.60;99.90;;;;;;5082401;28;20066;-54
2024/02/04 08:54:00;;;;;;;8.88;3.03;;;8.60;99.90;;;;;;5079002;28;20078;-53
2024/02/04 08:56:25;;;;;;;10.68;3.38;;;8.60;99.90;;;;;;5080776;28;20066;-53
2024/02/04 08:58:52;;;;;;;11.48;3.00;;;8.60;99.90;;;;;;5080945;28;20020;-53
2024/02/04 09:01:18;;;;;;;6.82;2.60;;;8.60;99.90;;;;;;5080414;28;20025;-53
2024/02/04 09:03:44;;;;;;;9.68;3.35;;;8.60;99.90;;;;;;5080896;28;20016;-54
2024/02/04 09:06:09;;;;;;;8.60;3.15;;;8.60;99.90;;;;;;5081393;28;20553;-54
2024/02/04 09:08:35;;;;;;;8.02;3.15;;;8.70;99.90;;;;;;5082786;28;20054;-53
2024/02/04 09:11:01;;;;;;;12.60;3.33;;;8.70;99.90;;;;;;5079593;28;20108;-54
2024/02/04 09:13:26;;;;;;;16.83;3.30;;;8.70;99.90;;;;;;5080577;28;20098;-53
2024/02/04 09:15:53;;;;;;;12.95;3.35;;;8.70;99.90;;;;;;5077307;28;20024;-53
2024/02/04 09:18:19;;;;;;;12.57;3.70;;;8.70;99.90;;;;;;5076763;28;20047;-51
2024/02/04 09:20:45;;;;;;;10.60;3.58;;;8.70;99.90;;;;;;5079126;28;20529;-54
2024/02/04 09:23:11;;;;;;;9.50;2.88;;;8.70;99.90;;;;;;5077896;28;20038;-52
2024/02/04 09:25:36;;;;;;;12.88;3.50;;;8.70;99.90;;;;;;5079680;28;20445;-52
2024/02/04 09:28:02;;;;;;;6.22;2.97;;;8.70;99.90;;;;;;5077165;28;20597;-53
2024/02/04 09:30:28;;;;;;;7.72;3.20;;;8.70;99.90;;;;;;5078781;28;20020;-52
2024/02/04 09:32:53;;;;;;;9.25;3.20;;;8.70;99.90;;;;;;5058482;28;20024;-51
2024/02/04 09:35:19;;;;;;;9.13;2.80;;;8.70;99.90;;;;;;5077906;28;20280;-54
2024/02/04 09:37:44;;;;;;;12.48;3.33;;;8.70;99.90;;;;;;5079189;28;20028;-53
2024/02/04 09:40:10;;;;;;;14.05;4.15;;;8.80;99.90;;;;;;5076906;28;20552;-54
2024/02/04 09:42:36;;;;;;;14.48;4.25;;;8.80;99.90;;;;;;5076713;28;20019;-53
2024/02/04 09:45:02;;;;;;;14.07;3.28;;;8.80;99.90;;;;;;5075672;28;20378;-52
2024/02/04 09:47:29;;;;;;;10.63;2.60;;;8.90;99.90;;;;;;5078430;28;20031;-53
2024/02/04 09:49:56;;;;;;;13.20;2.70;;;8.90;99.90;;;;;;5076051;28;20025;-53
2024/02/04 09:52:29;;;;;;;8.25;2.72;;;8.90;99.90;;;;;;5076613;28;20029;-52
2024/02/04 09:55:01;;;;;;;13.27;2.78;;;8.80;99.90;;;;;;5072461;28;20127;-53
2024/02/04 09:57:26;;;;;;;7.47;2.63;;;8.80;99.90;;;;;;5068267;28;20031;-52
2024/02/04 09:59:52;;;;;;;10.32;2.90;;;8.70;99.90;;;;;;5069587;28;20394;-53
2024/02/04 10:02:18;;;;;;;11.60;2.53;;;8.80;99.90;;;;;;5069371;28;20445;-53
2024/02/04 10:04:44;;;;;;;7.88;3.20;;;8.80;99.90;;;;;;5075329;28;20016;-54
2024/02/04 10:07:09;;;;;;;12.48;3.25;;;8.80;99.90;;;;;;5069367;28;20018;-54
2024/02/04 10:09:35;;;;;;;8.30;2.75;;;8.70;99.90;;;;;;5074061;28;20069;-53
2024/02/04 10:12:01;;;;;;;12.35;3.20;;;8.70;99.90;;;;;;5070352;28;20056;-53
2024/02/04 10:14:26;;;;;;;10.23;2.75;;;8.70;99.90;;;;;;5069190;28;20029;-52
2024/02/04 10:16:53;;;;;;;13.93;3.42;;;8.70;99.90;;;;;;5070075;28;20587;-54
2024/02/04 10:19:18;;;;;;;7.10;3.55;;;8.70;99.90;;;;;;5077475;28;20029;-54
2024/02/04 10:21:43;;;;;;;12.20;2.80;;;8.70;99.90;;;;;;5077867;28;20088;-51
2024/02/04 10:24:09;;;;;;;12.40;3.13;;;8.80;99.90;;;;;;5068708;28;20039;-51
2024/02/04 10:26:37;;;;;;;10.13;2.47;;;8.80;99.90;;;;;;5069711;28;20390;-54
2024/02/04 10:29:03;;;;;;;12.45;2.95;;;8.70;99.90;;;;;;5069580;28;20017;-54
2024/02/04 10:31:28;;;;;;;10.50;3.00;;;8.70;99.90;;;;;;5068051;28;20024;-50
2024/02/04 10:33:55;;;;;;;11.45;2.42;;;8.70;99.90;;;;;;5068822;28;20167;-54
2024/02/04 10:36:21;;;;;;;12.57;2.97;;;8.70;99.90;;;;;;5069528;28;20104;-52
2024/02/04 10:38:47;;;;;;;15.80;2.97;;;8.70;99.90;;;;;;5068838;28;20450;-53
2024/02/04 10:41:15;;;;;;;9.70;2.50;;;8.70;99.90;;;;;;5067410;28;20095;-54
2024/02/04 10:43:43;;;;;;;11.90;3.40;;;8.80;99.90;;;;;;5069017;28;20562;-54
2024/02/04 10:46:17;;;;;;;10.32;2.67;;;8.80;99.90;;;;;;5069479;28;20032;-53
2024/02/04 10:48:45;;;;;;;7.40;2.45;;;8.80;99.90;;;;;;5075504;28;20477;-54
2024/02/04 10:51:15;;;;;;;18.02;3.03;;;8.80;99.90;;;;;;5072503;28;20032;-55
2024/02/04 10:53:45;;;;;;;11.73;2.83;;;8.80;99.90;;;;;;5075207;28;20020;-53
2024/02/04 10:56:32;;;;;;;11.45;3.00;;;8.80;99.90;;;;;;5072252;28;20121;-52
2024/02/04 10:59:00;;;;;;;13.98;2.72;;;8.80;99.90;;;;;;5085783;28;20530;-53
2024/02/04 11:01:26;;;;;;;9.57;3.15;;;8.80;99.90;;;;;;5080252;28;20150;-53
2024/02/04 11:03:53;;;;;;;10.25;2.97;;;8.80;99.90;;;;;;5072838;28;20016;-50
2024/02/04 11:06:20;;;;;;;10.88;2.63;;;8.80;99.90;;;;;;5074752;28;20099;-51
2024/02/04 11:08:46;;;;;;;15.48;3.13;;;8.80;99.90;;;;;;5074626;28;20016;-53
2024/02/04 11:11:12;;;;;;;13.02;3.13;;;8.70;99.90;;;;;;5073041;28;20049;-52
2024/02/04 11:13:39;;;;;;;11.13;2.72;;;8.70;99.90;;;;;;5074125;28;20048;-52
2024/02/04 11:16:21;;;;;;;16.48;3.17;;;8.60;99.90;;;;;;5074095;28;20039;-51
2024/02/04 11:19:00;;;;;;;9.75;3.05;;;8.60;99.90;;;;;;5075051;28;20034;-52
2024/02/04 11:21:39;;;;;;;13.35;3.22;;;8.70;99.90;;;;;;5072664;28;20390;-51
2024/02/04 11:24:23;;;;;;;11.48;2.83;;;8.70;99.90;;;;;;5071447;28;20421;-50
2024/02/04 11:26:49;;;;;;;16.38;3.35;;;8.80;99.90;;;;;;5072452;28;20111;-51
2024/02/04 11:29:15;;;;;;;11.40;3.28;;;8.80;99.90;;;;;;5072261;28;20596;-52
2024/02/04 11:31:41;;;;;;;12.35;3.17;;;8.80;99.90;;;;;;5072229;28;20169;-51
2024/02/04 11:34:07;;;;;;;22.58;3.83;;;8.90;99.90;;;;;;5072004;28;20335;-51
2024/02/04 11:36:39;;;;;;;10.88;2.65;;;8.90;99.90;;;;;;5072180;28;20021;-53
2024/02/04 11:39:14;;;;;;;19.75;3.85;;;8.90;99.90;;;;;;5075551;28;20124;-51
2024/02/04 11:41:47;;;;;;;14.52;3.30;;;8.90;99.90;;;;;;5071066;28;20553;-52
2024/02/04 11:44:22;;;;;;;15.18;3.50;;;9.00;99.90;;;;;;5067767;28;20520;-50
2024/02/04 11:46:49;;;;;;;17.00;3.22;;;9.00;99.90;;;;;;5072984;28;20357;-53
2024/02/04 11:49:19;;;;;;;10.80;3.47;;;9.10;99.90;;;;;;5072349;28;20017;-53
2024/02/04 11:51:51;;;;;;;8.32;3.78;;;9.20;99.90;;;;;;5073055;28;20212;-53
2024/02/04 11:54:20;;;;;;;12.73;2.70;;;9.30;99.90;;;;;;5072757;28;20111;-51
2024/02/04 11:56:52;;;;;;;9.00;3.03;;;9.40;99.90;;;;;;5072040;28;20090;-50
2024/02/04 11:59:22;;;;;;;11.57;2.92;;;9.70;99.90;;;;;;5073226;28;20028;-50
2024/02/04 12:01:48;;;;;;;11.57;3.08;;;9.80;99.90;;;;;;5067979;28;20409;-50
2024/02/04 12:04:15;;;;;;;12.20;4.13;;;9.70;99.90;;;;;;5069676;28;20116;-50
2024/02/04 12:06:42;;;;;;;9.95;3.38;;;9.80;99.90;;;;;;5068001;28;20027;-49
2024/02/04 12:09:09;;;;;;;12.95;3.22;;;9.70;99.90;;;;;;5073788;28;20028;-48
2024/02/04 12:11:36;;;;;;;14.18;3.15;;;9.70;99.90;;;;;;5072600;28;20450;-49
2024/02/04 12:14:07;;;;;;;12.40;3.22;;;9.70;99.90;;;;;;5069663;28;20415;-50
2024/02/04 12:16:35;;;;;;;8.40;2.95;;;9.60;99.90;;;;;;5069499;28;20031;-50
2024/02/04 12:19:03;;;;;;;9.88;3.15;;;9.60;99.90;;;;;;5073619;28;20485;-49
2024/02/04 12:21:29;;;;;;;15.30;3.70;;;9.50;99.90;;;;;;5067585;28;20040;-50
2024/02/04 12:23:55;;;;;;;17.38;3.83;;;9.30;99.90;;;;;;5068756;28;20025;-52
2024/02/04 12:26:22;;;;;;;17.02;3.58;;;9.30;99.90;;;;;;5068872;28;20025;-51
2024/02/04 12:28:48;;;;;;;8.25;3.50;;;9.20;99.90;;;;;;5068884;28;20024;-54
2024/02/04 12:31:21;;;;;;;12.95;3.20;;;9.10;99.90;;;;;;5069227;28;20029;-53
2024/02/04 12:33:57;;;;;;;17.02;3.08;;;9.10;99.90;;;;;;5070047;28;20048;-53
2024/02/04 12:36:33;;;;;;;10.32;3.40;;;9.00;99.90;;;;;;5071292;28;20029;-51
2024/02/04 12:39:03;;;;;;;19.45;4.05;;;9.00;99.90;;;;;;5069481;28;20394;-53
2024/02/04 12:41:32;;;;;;;15.50;3.07;;;9.00;99.90;;;;;;5069182;28;20350;-50
2024/02/04 12:44:00;;;;;;;10.73;3.05;;;9.00;99.90;;;;;;5069456;28;20028;-52
2024/02/04 12:46:26;;;;;;;11.93;3.20;;;9.00;99.90;;;;;;5051978;28;20045;-51